createdAt,value
2023-03-06T00:03:28.051Z,2.20
2023-03-06T00:08:34.487Z,2.60
2023-03-06T00:13:36.150Z,2.30
2023-03-06T00:18:44.024Z,2.20
2023-03-06T00:23:45.750Z,2.80
2023-03-06T00:28:47.424Z,2.93
2023-03-06T00:33:51.738Z,3.17
2023-03-06T00:38:53.579Z,3.43
2023-03-06T00:43:55.469Z,3.00
2023-03-06T00:48:57.179Z,3.30
2023-03-06T00:53:58.959Z,3.57
2023-03-06T00:59:03.037Z,4.00
2023-03-06T01:04:05.291Z,4.00
2023-03-06T01:09:09.554Z,3.73
2023-03-06T01:14:11.229Z,3.87
2023-03-06T01:19:15.311Z,5.67
2023-03-06T01:24:17.045Z,4.60
2023-03-06T01:29:18.741Z,5.90
2023-03-06T01:34:20.481Z,6.77
2023-03-06T01:39:22.164Z,6.63
2023-03-06T01:44:23.984Z,6.60
2023-03-06T01:49:29.470Z,6.73
2023-03-06T01:54:34.719Z,6.87
2023-03-06T01:59:37.804Z,6.07
2023-03-06T02:04:40.443Z,6.87
2023-03-06T02:09:46.956Z,6.10
2023-03-06T02:14:48.913Z,7.00
2023-03-06T02:20:21.099Z,5.60
2023-03-06T02:25:43.724Z,7.00
2023-03-06T02:30:48.323Z,5.70
2023-03-06T02:35:58.491Z,4.83
2023-03-06T02:41:04.777Z,5.03
2023-03-06T02:46:09.564Z,5.47
2023-03-06T02:51:11.325Z,6.10
2023-03-06T02:56:13.089Z,5.43
2023-03-06T03:01:17.450Z,5.07
2023-03-06T03:06:19.658Z,5.47
2023-03-06T03:11:24.253Z,4.87
2023-03-06T03:16:31.445Z,4.37
2023-03-06T03:21:34.008Z,4.80
2023-03-06T03:26:38.001Z,5.30
2023-03-06T03:31:47.549Z,5.13
2023-03-06T03:36:52.007Z,4.90
2023-03-06T03:41:53.782Z,5.83
2023-03-06T03:46:55.638Z,6.07
2023-03-06T03:52:00.760Z,5.60
2023-03-06T03:57:11.301Z,5.87
2023-03-06T04:02:21.792Z,5.13
2023-03-06T04:07:34.935Z,5.90
2023-03-06T04:12:37.312Z,5.93
2023-03-06T04:17:42.411Z,6.53
2023-03-06T04:22:51.927Z,5.50
2023-03-06T04:27:53.694Z,5.90
2023-03-06T04:32:58.162Z,6.03
2023-03-06T04:38:00.227Z,5.60
2023-03-06T04:43:05.728Z,6.20
2023-03-06T04:48:09.741Z,6.00
2023-03-06T04:53:16.966Z,6.03
2023-03-06T04:58:21.728Z,5.93
2023-03-06T05:03:23.381Z,5.53
2023-03-06T05:08:29.960Z,5.63
2023-03-06T05:13:31.660Z,5.73
2023-03-06T05:18:36.330Z,5.10
2023-03-06T05:23:41.780Z,5.00
2023-03-06T05:28:43.590Z,5.73
2023-03-06T05:33:45.530Z,5.83
2023-03-06T05:38:50.299Z,5.43
2023-03-06T05:43:54.052Z,4.93
2023-03-06T05:48:57.405Z,5.37
2023-03-06T05:54:01.244Z,6.63
2023-03-06T05:59:05.393Z,6.63
2023-03-06T06:04:07.045Z,7.07
2023-03-06T06:09:13.789Z,7.33
2023-03-06T06:14:17.964Z,7.00
2023-03-06T06:19:20.492Z,6.43
2023-03-06T06:24:26.147Z,8.23
2023-03-06T06:29:30.667Z,10.30
2023-03-06T06:34:32.426Z,9.60
2023-03-06T06:39:36.723Z,8.13
2023-03-06T06:44:38.791Z,9.10
2023-03-06T06:49:42.815Z,8.47
2023-03-06T06:54:47.173Z,9.73
2023-03-06T06:59:53.365Z,9.57
2023-03-06T07:05:04.087Z,7.97
2023-03-06T07:10:11.812Z,6.10
2023-03-06T07:15:16.826Z,6.93
2023-03-06T07:20:19.956Z,5.40
2023-03-06T07:25:22.361Z,6.00
2023-03-06T07:30:28.600Z,5.07
2023-03-06T07:35:32.665Z,5.17
2023-03-06T07:40:38.416Z,4.30
2023-03-06T07:45:40.065Z,4.37
2023-03-06T07:50:44.386Z,4.73
2023-03-06T07:55:46.119Z,3.93
2023-03-06T08:00:52.694Z,4.90
2023-03-06T08:06:05.807Z,4.50
2023-03-06T08:11:12.036Z,4.03
2023-03-06T08:16:13.830Z,4.30
2023-03-06T08:21:23.606Z,4.37
2023-03-06T08:26:27.882Z,4.30
2023-03-06T08:31:36.407Z,4.00
2023-03-06T08:36:42.716Z,3.30
2023-03-06T08:41:45.090Z,3.37
2023-03-06T08:46:46.919Z,3.50
2023-03-06T08:51:48.633Z,2.80
2023-03-06T08:56:53.873Z,3.27
2023-03-06T09:01:55.703Z,2.70
2023-03-06T09:07:11.457Z,2.30
2023-03-06T09:12:13.177Z,2.53
2023-03-06T09:17:15.029Z,2.50
2023-03-06T09:22:21.522Z,1.77
2023-03-06T09:27:23.369Z,1.97
2023-03-06T09:32:25.179Z,1.40
2023-03-06T09:37:27.087Z,1.10
2023-03-06T09:42:29.183Z,1.20
2023-03-06T09:47:40.401Z,1.23
2023-03-06T09:53:35.907Z,1.30
2023-03-06T09:58:52.521Z,1.40
2023-03-06T10:04:10.058Z,1.50
2023-03-06T10:09:38.206Z,1.00
2023-03-06T10:14:54.451Z,1.40
2023-03-06T10:19:56.281Z,1.10
2023-03-06T10:25:11.126Z,1.13
2023-03-06T10:30:34.903Z,0.90
2023-03-06T10:35:51.144Z,1.20
2023-03-06T10:41:08.149Z,0.80
2023-03-06T10:46:12.815Z,1.47
2023-03-06T10:51:24.214Z,1.33
2023-03-06T10:56:35.578Z,1.20
2023-03-06T11:01:37.560Z,1.10
2023-03-06T11:06:39.810Z,0.90
2023-03-06T11:11:41.683Z,0.87
2023-03-06T11:16:53.021Z,1.10
2023-03-06T11:22:06.862Z,1.20
2023-03-06T11:27:34.607Z,1.10
2023-03-06T11:32:45.381Z,0.73
2023-03-06T11:38:44.988Z,0.93
2023-03-06T11:43:55.261Z,0.80
2023-03-06T11:49:24.833Z,1.00
2023-03-06T11:54:28.941Z,0.80
2023-03-06T11:59:42.138Z,1.30
2023-03-06T12:05:06.878Z,0.60
2023-03-06T12:10:33.445Z,1.30
2023-03-06T12:16:08.723Z,0.87
2023-03-06T12:21:25.794Z,1.00
2023-03-06T12:27:07.032Z,1.20
2023-03-06T12:32:17.728Z,1.20
2023-03-06T12:37:31.393Z,1.00
2023-03-06T12:43:04.256Z,1.30
2023-03-06T12:48:19.303Z,0.90
2023-03-06T12:53:28.507Z,1.23
2023-03-06T12:58:34.569Z,0.97
2023-03-06T13:03:49.850Z,1.10
2023-03-06T13:09:14.448Z,0.87
2023-03-06T13:14:42.270Z,1.20
2023-03-06T13:20:20.374Z,0.87
2023-03-06T13:25:30.673Z,0.87
2023-03-06T13:30:38.486Z,0.77
2023-03-06T13:35:42.990Z,0.90
2023-03-06T13:40:45.038Z,1.37
2023-03-06T13:45:47.986Z,0.80
2023-03-06T13:50:49.805Z,0.90
2023-03-06T13:56:21.157Z,1.20
2023-03-06T14:01:34.806Z,0.83
2023-03-06T14:06:39.338Z,0.80
2023-03-06T14:11:46.400Z,0.90
2023-03-06T14:16:51.285Z,1.10
2023-03-06T14:21:56.640Z,1.20
2023-03-06T14:26:58.387Z,1.63
2023-03-06T14:32:01.544Z,1.30
2023-03-06T14:37:05.623Z,1.60
2023-03-06T14:42:19.101Z,1.77
2023-03-06T14:47:23.350Z,1.57
2023-03-06T14:52:27.452Z,1.60
2023-03-06T14:57:29.302Z,1.40
2023-03-06T15:02:33.006Z,1.40
2023-03-06T15:07:35.282Z,1.70
2023-03-06T15:12:38.663Z,1.40
2023-03-06T15:17:50.191Z,1.40
2023-03-06T15:22:51.958Z,1.63
2023-03-06T15:28:15.491Z,1.00
2023-03-06T15:33:22.839Z,0.97
2023-03-06T15:38:29.872Z,1.43
2023-03-06T15:43:39.332Z,1.00
2023-03-06T15:48:59.790Z,1.10
2023-03-06T15:54:12.332Z,1.10
2023-03-06T15:59:26.051Z,1.27
2023-03-06T16:04:27.966Z,1.27
2023-03-06T16:09:29.699Z,1.40
2023-03-06T16:14:36.614Z,1.30
2023-03-06T16:19:39.014Z,1.00
2023-03-06T16:24:41.776Z,1.27
2023-03-06T16:29:43.925Z,1.30
2023-03-06T16:34:46.203Z,1.40
2023-03-06T16:39:52.715Z,1.50
2023-03-06T16:44:55.800Z,1.60
2023-03-06T16:50:01.900Z,1.70
2023-03-06T16:55:06.078Z,1.40
2023-03-06T17:00:08.630Z,1.70
2023-03-06T17:05:11.461Z,2.70
2023-03-06T17:10:20.100Z,1.33
2023-03-06T17:15:22.564Z,1.50
2023-03-06T17:20:26.464Z,2.43
2023-03-06T17:25:30.719Z,2.63
2023-03-06T17:30:35.185Z,2.10
2023-03-06T17:35:37.168Z,1.50
2023-03-06T17:40:39.061Z,2.90
2023-03-06T17:45:40.809Z,2.37
2023-03-06T17:50:53.267Z,1.70
2023-03-06T17:55:58.484Z,1.70
2023-03-06T18:01:30.229Z,1.97
2023-03-06T18:06:33.595Z,2.17
2023-03-06T18:11:35.344Z,1.57
2023-03-06T18:16:40.586Z,1.93
2023-03-06T18:21:42.422Z,1.60
2023-03-06T18:26:44.199Z,1.83
2023-03-06T18:31:50.359Z,1.67
2023-03-06T18:36:52.912Z,1.60
2023-03-06T18:41:55.891Z,1.67
2023-03-06T18:46:57.650Z,2.33
2023-03-06T18:51:59.551Z,2.37
2023-03-06T18:57:01.303Z,4.47
2023-03-06T19:02:05.119Z,2.50
2023-03-06T19:07:09.372Z,1.47
2023-03-06T19:12:14.173Z,1.73
2023-03-06T19:17:15.894Z,2.17
2023-03-06T19:22:17.699Z,2.47
2023-03-06T19:27:19.486Z,1.87
2023-03-06T19:32:22.280Z,2.20
2023-03-06T19:37:25.025Z,2.20
2023-03-06T19:42:28.158Z,2.43
2023-03-06T19:47:32.018Z,1.57
2023-03-06T19:52:39.053Z,1.17
2023-03-06T19:57:40.832Z,1.80
2023-03-06T20:02:44.834Z,2.07
2023-03-06T20:07:46.815Z,1.87
2023-03-06T20:12:48.691Z,2.00
2023-03-06T20:17:50.400Z,2.57
2023-03-06T20:22:52.383Z,2.70
2023-03-06T20:27:54.141Z,2.77
2023-03-06T20:32:58.683Z,2.67
2023-03-06T20:38:02.655Z,3.90
2023-03-06T20:43:04.646Z,5.50
2023-03-06T20:48:06.541Z,5.33
2023-03-06T20:53:11.371Z,6.37
2023-03-06T20:58:13.279Z,7.60
2023-03-06T21:03:17.576Z,8.60
2023-03-06T21:08:19.332Z,9.10
2023-03-06T21:13:21.180Z,10.37
2023-03-06T21:18:25.540Z,9.63
2023-03-06T21:23:27.666Z,15.63
2023-03-06T21:28:32.083Z,14.70
2023-03-06T21:33:34.107Z,16.67
2023-03-06T21:38:36.129Z,20.67
2023-03-06T21:43:40.590Z,14.60
2023-03-06T21:48:44.970Z,17.40
2023-03-06T21:53:50.136Z,10.73
2023-03-06T21:58:51.937Z,19.37
2023-03-06T22:03:53.711Z,21.23
2023-03-06T22:08:56.269Z,12.50
2023-03-06T22:13:58.145Z,22.13
2023-03-06T22:18:59.895Z,17.90
2023-03-06T22:24:01.632Z,17.87
2023-03-06T22:29:03.337Z,22.53
2023-03-06T22:34:07.275Z,22.20
2023-03-06T22:39:14.677Z,19.60
2023-03-06T22:44:18.381Z,26.07
2023-03-06T22:49:20.186Z,24.20
2023-03-06T22:54:26.754Z,31.23
2023-03-06T22:59:33.153Z,26.60
2023-03-06T23:04:34.871Z,20.20
2023-03-06T23:09:41.216Z,19.17
2023-03-06T23:15:01.609Z,26.57
2023-03-06T23:20:22.256Z,29.07
2023-03-06T23:25:43.094Z,27.83
2023-03-06T23:30:44.980Z,23.07
2023-03-06T23:35:46.754Z,30.30
2023-03-06T23:40:51.573Z,28.23
2023-03-06T23:45:56.480Z,19.47
2023-03-06T23:51:00.628Z,23.83
2023-03-06T23:56:05.162Z,30.10
